AirNav   ProFlight Series 2 Aviation Headset
 
 1147 users online  

DC07 MPD 5th Heliport
Washington, District of Columbia, USA

GOING TO WASHINGTON?


FAA INFORMATION EFFECTIVE 13 AUGUST 2020

Location

FAA Identifier: DC07
Lat/Long: 38-54-54.4010N 076-58-23.9100W
38-54.906683N 076-58.398500W
38.9151114,-76.9733083
(estimated)
Elevation: 383 ft. / 117 m (estimated)
Variation: 09W (1985)
Time zone: UTC -4 (UTC -5 during Standard Time)
Zip code: 20002

Heliport Operations

Heliport use: Private use. Permission required prior to landing
Activation date: 06/1975
Control tower: no
ARTCC: WASHINGTON CENTER
FSS: LEESBURG FLIGHT SERVICE STATION
Attendance: UNATNDD
Wind indicator: yes
Segmented circle: yes

Heliport Communications

WX AWOS-3 at CGS (5 nm NE): 121.225 (301-864-5497)
WX ASOS at DCA (5 nm SW): 132.65 (703-412-8140)
WX AWOS-3 at FME (14 nm NE): 123.925
WX AWOS-3PT at GAI (18 nm NW): 128.275 (301-977-2971)

Nearby radio navigation aids

VOR radial/distance  VOR name  Freq  Var
DCAr050/4.5WASHINGTON VOR/DME111.0009W
ADWr332/8.2ANDREWS VORTAC113.1010W
OTTr330/16.5NOTTINGHAM VORTAC113.7010W
BALr234/21.1BALTIMORE VORTAC115.1011W
AMLr101/23.1ARMEL VOR/DME113.5008W
EMIr188/34.8WESTMINSTER VORTAC117.9008W
FDKr156/(35.2)FREDERICK VOR109.0008W
BRVr036/39.0BROOKE VORTAC114.5009W

 
NDB name  Hdg/Dist  Freq  Var  ID
GEORGETOWN106/7.132309WGTN --. - -.
OXONN027/9.333211WDCA -.. -.-. .-
DAVEE032/16.522309WDAA -.. .- .-
ELLICOTT213/24.137111WFND ..-. -. -..

Heliport Services

Airframe service: NONE
Powerplant service: NONE

Runway Information

Helipad H1

Dimensions: 60 x 60 ft. / 18 x 18 m
Surface: concrete
Latitude: 38-54.906683N
Longitude: 076-58.398500W
Elevation: 383.0 ft.
Traffic pattern: leftleft
Obstructions: ant

Heliport Ownership and Management from official FAA records

Ownership: Publicly-owned
Owner: D. C. GOVERNMENT
1805 BLADENSBURG RD, NE
WASHINGTON, DC 20002
Phone 202-727-4490
Manager: VIVIAN ANDREWS/SPACE MGMT
300 INDIANA AVE, NW
WASHINGTON, DC 20001
Phone 202-727-4368

Additional Remarks

FOR CD CTC POTOMAC APCH AT 866-599-3874.

Instrument Procedures

There are no published instrument procedures at DC07.

Some nearby airports with instrument procedures:

KCGS - College Park Airport (5 nm NE)
KDCA - Ronald Reagan Washington National Airport (5 nm SW)
KADW - Joint Base Andrews (8 nm SE)
W00 - Freeway Airport (10 nm E)
KVKX - Potomac Airfield (10 nm S)
W32 - Washington Executive Airport/Hyde Field (10 nm S)
KFME - Tipton Airport (14 nm NE)
KDAA - Davison Army Airfield (15 nm SW)
KGAI - Montgomery County Airpark (18 nm NW)
KANP - Lee Airport (19 nm E)
 
Loc | Ops | Rwys | IFR | FBO | Links
Com | Nav | Svcs | Stats | Notes
Area around DC07 (MPD 5th Heliport)
 
Road maps at: MapQuest Bing Google
 
Aerial photo
No photo
 
Sectional chart

 
Airport distance calculator
Flying to MPD 5th Heliport? Find the distance to fly.

From to DC07

Sunrise and sunset
Times for 14-Aug-2020
 Local
(UTC-4)
 Zulu
(UTC)
Morning civil twilight05:5409:54
Sunrise06:2210:22
Sunset20:0200:02
Evening civil twilight20:3100:31

Current date and time
Zulu (UTC)  14-Aug-2020 23:08:36
Local (UTC-4)  14-Aug-2020 19:08:36
 
METAR
KCGS 
5nm NE 
142255Z AUTO 12005KT 10SM SCT110 25/20 A2995 RMK AO1 T02470202
KDCA 
5nm SW 
142252Z 12012KT 10SM FEW020 SCT055 BKN095 BKN250 26/22 A2995 RMK AO2 SLP143 T02560222
KADW 
8nm SE 
142256Z AUTO 11008KT 10SM -DZ SCT018 23/22 A2995 RMK AO2 RAE50DZB50 SLP147 P0009 T02330224 $
KFME 
14nm NE 
142255Z AUTO 13005KT 10SM OVC100 23/22 A2998 RMK AO1
KDAA 
15nm SW 
142256Z AUTO 12004KT 10SM BKN095 25/22 A2995 RMK AO2 SLP144 T02450222 $
KGAI 
18nm NW 
142256Z AUTO 00000KT 10SM OVC085 26/22 A2997 RMK AO2 SLP157 T02610222
TAF
KDCA 
5nm SW 
142053Z 1421/1524 04007KT P6SM -SHRA VCTS BKN040CB TEMPO 1421/1422 01010G18KT FM150000 05005KT P6SM BKN050 FM151500 06006KT P6SM BKN035 FM152000 07008G15KT P6SM BKN030
KADW 
8nm SE 
142125Z 1421/1523 06008KT 9000 -SHRA VCTS FEW020CB BKN030 BKN120 BKN250 QNH2993INS TEMPO 1421/1501 3200 RA BKN009 BKN010 BKN020 BECMG 1501/1502 06008KT 9999 NSW FEW040 FEW120 SCT250 QNH2997INS BECMG 1508/1509 05010KT 9999 SCT120 BKN250 QNH2996INS BECMG 1519/1520 06010KT 9999 FEW030 SCT100 BKN120 BKN250 QNH2997INS TX28/1517Z TN21/1508Z
KDAA 
15nm SW 
141743Z 1417/1523 VRB06KT 9000 -SHRA BKN025 OVC040 QNH2993INS TEMPO 1417/1501 02020G30KT 8000 -TSRA BKN025CB OVC040 BECMG 1500/1501 VRB06KT 9999 NSW FEW020 BKN025 OVC040 QNH2995INS BECMG 1521/1522 VRB06KT 9000 SHRA SCT030 BKN070 OVC100 QNH2997INS TX29/1419Z TN21/1511Z
NOTAMs
Click for the latest NOTAMs
NOTAMs are issued by the DoD/FAA and will open in a separate window not controlled by AirNav.

 

 
 

Would you like to see your business listed on this page?

 If your business provides an interesting product or service to pilots, flight crews, aircraft, or users of the MPD 5th Heliport, you should consider listing it here.  To start the listing process, click on the button below
 
Add a business
 

Other Pages about MPD 5th Heliport

Update a link
 
Copyright © AirNav, LLC. All rights reserved. Privacy Policy  Contact